sensor_id;sensor_type;location;lat;lon;timestamp;temperature;humidity
56322;DHT22;42227;6.376;-10.782;2024-01-15T00:02:07;29.00;1.00
56322;DHT22;42227;6.376;-10.782;2024-01-15T00:04:40;29.00;1.00
56322;DHT22;42227;6.376;-10.782;2024-01-15T00:07:09;29.00;1.00
56322;DHT22;42227;6.376;-10.782;2024-01-15T00:09:37;28.90;1.00
56322;DHT22;42227;6.376;-10.782;2024-01-15T00:12:06;28.90;1.00
56322;DHT22;42227;6.376;-10.782;2024-01-15T00:14:35;28.90;1.00
56322;DHT22;42227;6.376;-10.782;2024-01-15T00:17:03;28.90;1.00
56322;DHT22;42227;6.376;-10.782;2024-01-15T00:19:31;28.80;1.00
56322;DHT22;42227;6.376;-10.782;2024-01-15T00:22:00;28.90;1.00
56322;DHT22;42227;6.376;-10.782;2024-01-15T00:24:28;28.90;1.00
56322;DHT22;42227;6.376;-10.782;2024-01-15T00:26:57;28.90;1.00
56322;DHT22;42227;6.376;-10.782;2024-01-15T00:29:25;28.90;1.00
56322;DHT22;42227;6.376;-10.782;2024-01-15T00:31:53;28.80;1.00
56322;DHT22;42227;6.376;-10.782;2024-01-15T00:34:22;28.80;1.00
56322;DHT22;42227;6.376;-10.782;2024-01-15T00:36:51;28.80;1.00
56322;DHT22;42227;6.376;-10.782;2024-01-15T00:39:19;28.80;1.00
56322;DHT22;42227;6.376;-10.782;2024-01-15T00:41:47;28.90;1.00
56322;DHT22;42227;6.376;-10.782;2024-01-15T00:44:16;29.00;1.00
56322;DHT22;42227;6.376;-10.782;2024-01-15T00:46:45;28.90;1.00
56322;DHT22;42227;6.376;-10.782;2024-01-15T00:49:14;28.90;1.00
56322;DHT22;42227;6.376;-10.782;2024-01-15T00:51:43;28.90;1.00
56322;DHT22;42227;6.376;-10.782;2024-01-15T00:54:11;28.90;1.00
56322;DHT22;42227;6.376;-10.782;2024-01-15T00:56:40;28.90;1.00
56322;DHT22;42227;6.376;-10.782;2024-01-15T00:59:08;28.90;1.00
56322;DHT22;42227;6.376;-10.782;2024-01-15T01:01:37;28.90;1.00
56322;DHT22;42227;6.376;-10.782;2024-01-15T01:04:07;28.90;1.00
56322;DHT22;42227;6.376;-10.782;2024-01-15T01:06:36;29.00;1.00
56322;DHT22;42227;6.376;-10.782;2024-01-15T01:09:04;28.90;1.00
56322;DHT22;42227;6.376;-10.782;2024-01-15T01:11:33;28.90;1.00
56322;DHT22;42227;6.376;-10.782;2024-01-15T01:14:01;29.00;1.00
56322;DHT22;42227;6.376;-10.782;2024-01-15T01:16:29;28.90;1.00
56322;DHT22;42227;6.376;-10.782;2024-01-15T01:18:58;28.90;1.00
56322;DHT22;42227;6.376;-10.782;2024-01-15T01:21:27;28.80;1.00
56322;DHT22;42227;6.376;-10.782;2024-01-15T01:23:55;28.80;1.00
56322;DHT22;42227;6.376;-10.782;2024-01-15T01:26:24;28.70;1.00
56322;DHT22;42227;6.376;-10.782;2024-01-15T01:28:52;28.70;1.00
56322;DHT22;42227;6.376;-10.782;2024-01-15T01:31:20;28.70;1.00
56322;DHT22;42227;6.376;-10.782;2024-01-15T01:33:49;28.80;1.00
56322;DHT22;42227;6.376;-10.782;2024-01-15T01:36:18;28.80;1.00
56322;DHT22;42227;6.376;-10.782;2024-01-15T01:38:46;28.80;1.00
56322;DHT22;42227;6.376;-10.782;2024-01-15T01:41:15;28.70;1.00
56322;DHT22;42227;6.376;-10.782;2024-01-15T01:43:43;28.80;1.00
56322;DHT22;42227;6.376;-10.782;2024-01-15T01:46:12;28.70;1.00
56322;DHT22;42227;6.376;-10.782;2024-01-15T01:48:40;28.80;1.00
56322;DHT22;42227;6.376;-10.782;2024-01-15T01:51:10;28.80;1.00
56322;DHT22;42227;6.376;-10.782;2024-01-15T01:53:39;28.80;1.00
56322;DHT22;42227;6.376;-10.782;2024-01-15T01:56:08;28.80;99.90
56322;DHT22;42227;6.376;-10.782;2024-01-15T01:58:37;28.80;99.90
56322;DHT22;42227;6.376;-10.782;2024-01-15T02:01:07;28.90;99.90
56322;DHT22;42227;6.376;-10.782;2024-01-15T02:03:36;28.90;99.90
56322;DHT22;42227;6.376;-10.782;2024-01-15T02:06:04;28.90;99.90
56322;DHT22;42227;6.376;-10.782;2024-01-15T02:08:34;28.90;99.90
56322;DHT22;42227;6.376;-10.782;2024-01-15T02:11:02;28.90;99.90
56322;DHT22;42227;6.376;-10.782;2024-01-15T02:13:31;28.90;99.90
56322;DHT22;42227;6.376;-10.782;2024-01-15T02:15:59;28.90;99.90
56322;DHT22;42227;6.376;-10.782;2024-01-15T02:18:27;29.00;99.90
56322;DHT22;42227;6.376;-10.782;2024-01-15T02:20:59;28.90;99.90
56322;DHT22;42227;6.376;-10.782;2024-01-15T02:23:27;29.00;99.90
56322;DHT22;42227;6.376;-10.782;2024-01-15T02:25:55;28.90;99.90
56322;DHT22;42227;6.376;-10.782;2024-01-15T02:28:24;28.80;99.90
56322;DHT22;42227;6.376;-10.782;2024-01-15T02:30:52;28.80;1.00
56322;DHT22;42227;6.376;-10.782;2024-01-15T02:33:20;28.70;1.00
56322;DHT22;42227;6.376;-10.782;2024-01-15T02:35:49;28.60;1.00
56322;DHT22;42227;6.376;-10.782;2024-01-15T02:38:18;28.50;1.00
56322;DHT22;42227;6.376;-10.782;2024-01-15T02:40:46;28.50;1.00
56322;DHT22;42227;6.376;-10.782;2024-01-15T02:43:15;28.40;1.00
56322;DHT22;42227;6.376;-10.782;2024-01-15T02:45:43;28.20;1.00
56322;DHT22;42227;6.376;-10.782;2024-01-15T02:48:11;28.20;1.00
56322;DHT22;42227;6.376;-10.782;2024-01-15T02:50:40;28.00;1.00
56322;DHT22;42227;6.376;-10.782;2024-01-15T02:53:08;27.90;1.00
56322;DHT22;42227;6.376;-10.782;2024-01-15T02:55:36;27.70;27.50
56322;DHT22;42227;6.376;-10.782;2024-01-15T02:58:05;27.60;99.90
56322;DHT22;42227;6.376;-10.782;2024-01-15T03:00:33;27.40;99.90
56322;DHT22;42227;6.376;-10.782;2024-01-15T03:03:02;27.60;99.90
56322;DHT22;42227;6.376;-10.782;2024-01-15T03:05:30;27.80;99.90
56322;DHT22;42227;6.376;-10.782;2024-01-15T03:07:59;27.90;99.90
56322;DHT22;42227;6.376;-10.782;2024-01-15T03:10:27;28.00;99.90
56322;DHT22;42227;6.376;-10.782;2024-01-15T03:12:55;28.00;99.90
56322;DHT22;42227;6.376;-10.782;2024-01-15T03:16:17;28.00;99.90
56322;DHT22;42227;6.376;-10.782;2024-01-15T03:18:45;27.90;99.90
56322;DHT22;42227;6.376;-10.782;2024-01-15T03:21:14;27.90;99.90
56322;DHT22;42227;6.376;-10.782;2024-01-15T03:23:42;27.90;99.90
56322;DHT22;42227;6.376;-10.782;2024-01-15T03:26:11;27.80;99.90
56322;DHT22;42227;6.376;-10.782;2024-01-15T03:28:39;27.80;99.90
56322;DHT22;42227;6.376;-10.782;2024-01-15T03:31:08;27.60;99.90
56322;DHT22;42227;6.376;-10.782;2024-01-15T03:33:36;27.70;99.90
56322;DHT22;42227;6.376;-10.782;2024-01-15T03:36:05;27.80;99.90
56322;DHT22;42227;6.376;-10.782;2024-01-15T03:38:34;27.80;99.90
56322;DHT22;42227;6.376;-10.782;2024-01-15T03:41:02;27.80;99.90
56322;DHT22;42227;6.376;-10.782;2024-01-15T03:43:31;27.80;99.90
56322;DHT22;42227;6.376;-10.782;2024-01-15T03:45:59;27.80;99.90
56322;DHT22;42227;6.376;-10.782;2024-01-15T03:48:28;27.80;99.90
56322;DHT22;42227;6.376;-10.782;2024-01-15T03:50:57;27.80;99.90
56322;DHT22;42227;6.376;-10.782;2024-01-15T03:53:25;27.80;99.90
56322;DHT22;42227;6.376;-10.782;2024-01-15T03:55:53;27.80;99.90
56322;DHT22;42227;6.376;-10.782;2024-01-15T03:58:22;27.80;99.90
56322;DHT22;42227;6.376;-10.782;2024-01-15T04:00:50;27.80;99.90
56322;DHT22;42227;6.376;-10.782;2024-01-15T04:03:19;27.70;99.90
56322;DHT22;42227;6.376;-10.782;2024-01-15T04:05:47;27.60;99.90
56322;DHT22;42227;6.376;-10.782;2024-01-15T04:08:15;27.60;99.90
56322;DHT22;42227;6.376;-10.782;2024-01-15T04:10:44;27.60;99.90
56322;DHT22;42227;6.376;-10.782;2024-01-15T04:13:12;27.50;99.90
56322;DHT22;42227;6.376;-10.782;2024-01-15T04:15:41;27.50;99.90
56322;DHT22;42227;6.376;-10.782;2024-01-15T04:18:09;27.50;99.90
56322;DHT22;42227;6.376;-10.782;2024-01-15T04:20:38;27.60;99.90
56322;DHT22;42227;6.376;-10.782;2024-01-15T04:23:06;27.60;99.90
56322;DHT22;42227;6.376;-10.782;2024-01-15T04:25:34;27.50;99.90
56322;DHT22;42227;6.376;-10.782;2024-01-15T04:28:03;27.40;99.90
56322;DHT22;42227;6.376;-10.782;2024-01-15T04:30:31;27.30;99.90
56322;DHT22;42227;6.376;-10.782;2024-01-15T04:33:00;27.30;99.90
56322;DHT22;42227;6.376;-10.782;2024-01-15T04:35:29;27.30;99.90
56322;DHT22;42227;6.376;-10.782;2024-01-15T04:37:58;27.40;99.90
56322;DHT22;42227;6.376;-10.782;2024-01-15T04:40:26;27.50;99.90
56322;DHT22;42227;6.376;-10.782;2024-01-15T04:42:55;27.40;99.90
56322;DHT22;42227;6.376;-10.782;2024-01-15T04:45:23;27.40;99.90
56322;DHT22;42227;6.376;-10.782;2024-01-15T04:47:51;27.30;99.90
56322;DHT22;42227;6.376;-10.782;2024-01-15T04:50:20;27.40;99.90
56322;DHT22;42227;6.376;-10.782;2024-01-15T04:52:49;27.50;99.90
56322;DHT22;42227;6.376;-10.782;2024-01-15T04:55:17;27.40;99.90
56322;DHT22;42227;6.376;-10.782;2024-01-15T04:57:46;27.50;99.90
56322;DHT22;42227;6.376;-10.782;2024-01-15T05:00:14;27.50;99.90
56322;DHT22;42227;6.376;-10.782;2024-01-15T05:02:43;27.50;99.90
56322;DHT22;42227;6.376;-10.782;2024-01-15T05:05:12;27.50;99.90
56322;DHT22;42227;6.376;-10.782;2024-01-15T05:07:40;27.50;99.90
56322;DHT22;42227;6.376;-10.782;2024-01-15T05:10:08;27.50;99.90
56322;DHT22;42227;6.376;-10.782;2024-01-15T05:12:37;27.40;99.90
56322;DHT22;42227;6.376;-10.782;2024-01-15T05:15:05;27.40;99.90
56322;DHT22;42227;6.376;-10.782;2024-01-15T05:17:34;27.40;99.90
56322;DHT22;42227;6.376;-10.782;2024-01-15T05:20:03;27.40;99.90
56322;DHT22;42227;6.376;-10.782;2024-01-15T05:22:31;27.30;99.90
56322;DHT22;42227;6.376;-10.782;2024-01-15T05:24:59;27.40;99.90
56322;DHT22;42227;6.376;-10.782;2024-01-15T05:27:28;27.30;99.90
56322;DHT22;42227;6.376;-10.782;2024-01-15T05:29:56;27.30;99.90
56322;DHT22;42227;6.376;-10.782;2024-01-15T05:32:24;27.30;99.90
56322;DHT22;42227;6.376;-10.782;2024-01-15T05:34:53;27.20;99.90
56322;DHT22;42227;6.376;-10.782;2024-01-15T05:37:21;27.20;99.90
56322;DHT22;42227;6.376;-10.782;2024-01-15T05:39:50;27.20;99.90
56322;DHT22;42227;6.376;-10.782;2024-01-15T05:42:18;27.30;99.90
56322;DHT22;42227;6.376;-10.782;2024-01-15T05:44:47;27.40;99.90
56322;DHT22;42227;6.376;-10.782;2024-01-15T05:47:15;27.40;99.90
56322;DHT22;42227;6.376;-10.782;2024-01-15T05:49:44;27.50;99.90
56322;DHT22;42227;6.376;-10.782;2024-01-15T05:52:12;27.40;99.90
56322;DHT22;42227;6.376;-10.782;2024-01-15T05:54:43;27.40;99.90
56322;DHT22;42227;6.376;-10.782;2024-01-15T05:57:12;27.30;99.90
56322;DHT22;42227;6.376;-10.782;2024-01-15T05:59:40;27.30;99.90
56322;DHT22;42227;6.376;-10.782;2024-01-15T06:02:08;27.30;99.90
56322;DHT22;42227;6.376;-10.782;2024-01-15T06:04:38;27.30;99.90
56322;DHT22;42227;6.376;-10.782;2024-01-15T06:07:07;27.30;1.00
56322;DHT22;42227;6.376;-10.782;2024-01-15T06:09:35;27.40;1.00
56322;DHT22;42227;6.376;-10.782;2024-01-15T06:12:05;27.40;99.90
56322;DHT22;42227;6.376;-10.782;2024-01-15T06:14:33;27.40;1.00
56322;DHT22;42227;6.376;-10.782;2024-01-15T06:17:02;27.40;99.90
56322;DHT22;42227;6.376;-10.782;2024-01-15T06:19:30;27.40;99.90
56322;DHT22;42227;6.376;-10.782;2024-01-15T06:21:59;27.40;1.00
56322;DHT22;42227;6.376;-10.782;2024-01-15T06:24:27;27.40;1.00
56322;DHT22;42227;6.376;-10.782;2024-01-15T06:26:56;27.50;99.90
56322;DHT22;42227;6.376;-10.782;2024-01-15T06:29:25;27.30;99.90
56322;DHT22;42227;6.376;-10.782;2024-01-15T06:31:54;27.30;99.90
56322;DHT22;42227;6.376;-10.782;2024-01-15T06:34:23;27.20;1.00
56322;DHT22;42227;6.376;-10.782;2024-01-15T06:36:51;27.20;1.00
56322;DHT22;42227;6.376;-10.782;2024-01-15T06:39:20;27.10;1.00
56322;DHT22;42227;6.376;-10.782;2024-01-15T06:41:48;27.10;1.00
56322;DHT22;42227;6.376;-10.782;2024-01-15T06:44:16;27.10;1.00
56322;DHT22;42227;6.376;-10.782;2024-01-15T06:46:46;27.10;1.00
56322;DHT22;42227;6.376;-10.782;2024-01-15T06:49:14;27.10;1.00
56322;DHT22;42227;6.376;-10.782;2024-01-15T06:51:42;27.10;1.00
56322;DHT22;42227;6.376;-10.782;2024-01-15T06:54:15;27.00;1.00
56322;DHT22;42227;6.376;-10.782;2024-01-15T06:56:43;27.00;1.00
56322;DHT22;42227;6.376;-10.782;2024-01-15T06:59:11;26.90;1.90
56322;DHT22;42227;6.376;-10.782;2024-01-15T07:01:43;26.90;79.10
56322;DHT22;42227;6.376;-10.782;2024-01-15T07:04:12;26.90;78.90
56322;DHT22;42227;6.376;-10.782;2024-01-15T07:06:40;26.90;95.00
56322;DHT22;42227;6.376;-10.782;2024-01-15T07:09:09;27.00;73.80
56322;DHT22;42227;6.376;-10.782;2024-01-15T07:11:37;27.00;63.00
56322;DHT22;42227;6.376;-10.782;2024-01-15T07:14:06;27.00;67.30
56322;DHT22;42227;6.376;-10.782;2024-01-15T07:16:34;27.00;44.20
56322;DHT22;42227;6.376;-10.782;2024-01-15T07:19:05;27.10;45.00
56322;DHT22;42227;6.376;-10.782;2024-01-15T07:21:33;27.30;1.00
56322;DHT22;42227;6.376;-10.782;2024-01-15T07:24:02;27.40;1.00
56322;DHT22;42227;6.376;-10.782;2024-01-15T07:26:30;27.40;1.00
56322;DHT22;42227;6.376;-10.782;2024-01-15T07:28:59;27.40;1.00
56322;DHT22;42227;6.376;-10.782;2024-01-15T07:31:27;27.30;1.00
56322;DHT22;42227;6.376;-10.782;2024-01-15T07:33:56;27.20;1.00
56322;DHT22;42227;6.376;-10.782;2024-01-15T07:36:25;27.20;1.00
56322;DHT22;42227;6.376;-10.782;2024-01-15T07:38:53;27.00;1.00
56322;DHT22;42227;6.376;-10.782;2024-01-15T07:41:22;27.10;51.00
56322;DHT22;42227;6.376;-10.782;2024-01-15T07:43:50;27.20;1.00
56322;DHT22;42227;6.376;-10.782;2024-01-15T07:46:21;27.30;1.00
56322;DHT22;42227;6.376;-10.782;2024-01-15T07:48:49;27.40;1.00
56322;DHT22;42227;6.376;-10.782;2024-01-15T07:51:17;27.50;1.00
56322;DHT22;42227;6.376;-10.782;2024-01-15T07:53:46;27.60;1.00
56322;DHT22;42227;6.376;-10.782;2024-01-15T07:56:14;27.60;1.00
56322;DHT22;42227;6.376;-10.782;2024-01-15T07:58:42;27.70;99.90
56322;DHT22;42227;6.376;-10.782;2024-01-15T08:01:11;27.80;99.90
56322;DHT22;42227;6.376;-10.782;2024-01-15T08:03:39;27.80;99.90
56322;DHT22;42227;6.376;-10.782;2024-01-15T08:06:08;28.00;99.90
56322;DHT22;42227;6.376;-10.782;2024-01-15T08:08:37;28.00;99.90
56322;DHT22;42227;6.376;-10.782;2024-01-15T08:11:06;27.90;99.90
56322;DHT22;42227;6.376;-10.782;2024-01-15T08:13:34;27.90;99.90
56322;DHT22;42227;6.376;-10.782;2024-01-15T08:16:03;27.90;99.90
56322;DHT22;42227;6.376;-10.782;2024-01-15T08:18:31;27.90;99.90
56322;DHT22;42227;6.376;-10.782;2024-01-15T08:21:00;27.90;99.90
56322;DHT22;42227;6.376;-10.782;2024-01-15T08:23:28;27.90;99.90
56322;DHT22;42227;6.376;-10.782;2024-01-15T08:25:57;27.90;99.90
56322;DHT22;42227;6.376;-10.782;2024-01-15T08:29:34;27.90;99.90
56322;DHT22;42227;6.376;-10.782;2024-01-15T08:32:03;27.90;99.90
56322;DHT22;42227;6.376;-10.782;2024-01-15T08:34:31;27.90;99.90
56322;DHT22;42227;6.376;-10.782;2024-01-15T08:37:00;28.20;99.90
56322;DHT22;42227;6.376;-10.782;2024-01-15T08:39:28;28.20;99.90
56322;DHT22;42227;6.376;-10.782;2024-01-15T08:41:56;28.30;99.90
56322;DHT22;42227;6.376;-10.782;2024-01-15T08:44:25;28.40;90.30
56322;DHT22;42227;6.376;-10.782;2024-01-15T08:46:53;28.40;85.90
56322;DHT22;42227;6.376;-10.782;2024-01-15T08:49:22;28.40;54.40
56322;DHT22;42227;6.376;-10.782;2024-01-15T08:51:51;28.90;28.50
56322;DHT22;42227;6.376;-10.782;2024-01-15T08:54:19;29.40;1.00
56322;DHT22;42227;6.376;-10.782;2024-01-15T08:56:48;29.70;1.00
56322;DHT22;42227;6.376;-10.782;2024-01-15T08:59:16;30.20;99.90
56322;DHT22;42227;6.376;-10.782;2024-01-15T09:01:44;30.70;99.90
56322;DHT22;42227;6.376;-10.782;2024-01-15T09:04:13;31.00;99.90
56322;DHT22;42227;6.376;-10.782;2024-01-15T09:06:45;31.10;99.90
56322;DHT22;42227;6.376;-10.782;2024-01-15T09:09:13;31.20;99.90
56322;DHT22;42227;6.376;-10.782;2024-01-15T09:11:42;31.50;99.90
56322;DHT22;42227;6.376;-10.782;2024-01-15T09:14:10;31.40;99.90
56322;DHT22;42227;6.376;-10.782;2024-01-15T09:16:40;31.10;99.90
56322;DHT22;42227;6.376;-10.782;2024-01-15T09:19:09;30.80;99.90
56322;DHT22;42227;6.376;-10.782;2024-01-15T09:21:38;30.70;99.90
56322;DHT22;42227;6.376;-10.782;2024-01-15T09:24:07;30.90;99.90
56322;DHT22;42227;6.376;-10.782;2024-01-15T09:26:35;31.00;99.90
56322;DHT22;42227;6.376;-10.782;2024-01-15T09:29:03;31.10;99.90
56322;DHT22;42227;6.376;-10.782;2024-01-15T09:31:32;31.00;99.90
56322;DHT22;42227;6.376;-10.782;2024-01-15T09:34:00;30.90;99.90
56322;DHT22;42227;6.376;-10.782;2024-01-15T09:36:29;30.70;99.90
56322;DHT22;42227;6.376;-10.782;2024-01-15T09:38:57;30.70;99.90
56322;DHT22;42227;6.376;-10.782;2024-01-15T09:41:26;30.60;99.90
56322;DHT22;42227;6.376;-10.782;2024-01-15T09:43:54;30.50;99.90
56322;DHT22;42227;6.376;-10.782;2024-01-15T09:46:22;30.40;99.90
56322;DHT22;42227;6.376;-10.782;2024-01-15T09:48:51;30.20;99.90
56322;DHT22;42227;6.376;-10.782;2024-01-15T09:55:44;30.20;99.90
56322;DHT22;42227;6.376;-10.782;2024-01-15T09:58:13;30.50;99.90
56322;DHT22;42227;6.376;-10.782;2024-01-15T10:00:43;30.80;99.90
56322;DHT22;42227;6.376;-10.782;2024-01-15T10:03:13;30.80;99.90
56322;DHT22;42227;6.376;-10.782;2024-01-15T10:05:43;30.70;99.90
56322;DHT22;42227;6.376;-10.782;2024-01-15T10:08:11;30.50;99.90
56322;DHT22;42227;6.376;-10.782;2024-01-15T10:10:40;30.30;99.90
56322;DHT22;42227;6.376;-10.782;2024-01-15T10:13:09;30.10;99.90
56322;DHT22;42227;6.376;-10.782;2024-01-15T10:15:39;29.90;99.90
56322;DHT22;42227;6.376;-10.782;2024-01-15T10:18:07;29.80;99.90
56322;DHT22;42227;6.376;-10.782;2024-01-15T10:20:36;29.60;99.90
56322;DHT22;42227;6.376;-10.782;2024-01-15T10:23:04;29.60;99.90
56322;DHT22;42227;6.376;-10.782;2024-01-15T10:25:32;29.50;99.90
56322;DHT22;42227;6.376;-10.782;2024-01-15T10:28:02;29.60;99.90
56322;DHT22;42227;6.376;-10.782;2024-01-15T10:30:34;29.70;99.90
56322;DHT22;42227;6.376;-10.782;2024-01-15T10:33:04;29.90;99.90
56322;DHT22;42227;6.376;-10.782;2024-01-15T10:35:34;30.00;99.90
56322;DHT22;42227;6.376;-10.782;2024-01-15T10:38:03;30.10;99.90
56322;DHT22;42227;6.376;-10.782;2024-01-15T10:40:32;30.40;99.90
56322;DHT22;42227;6.376;-10.782;2024-01-15T10:43:00;30.50;99.90
56322;DHT22;42227;6.376;-10.782;2024-01-15T10:45:28;30.60;99.90
56322;DHT22;42227;6.376;-10.782;2024-01-15T10:47:57;30.80;99.90
56322;DHT22;42227;6.376;-10.782;2024-01-15T10:50:26;31.00;99.90
56322;DHT22;42227;6.376;-10.782;2024-01-15T10:52:55;30.80;99.90
56322;DHT22;42227;6.376;-10.782;2024-01-15T10:55:31;30.70;99.90
56322;DHT22;42227;6.376;-10.782;2024-01-15T10:58:00;30.70;99.90
56322;DHT22;42227;6.376;-10.782;2024-01-15T11:00:29;30.70;99.90
56322;DHT22;42227;6.376;-10.782;2024-01-15T11:03:01;30.50;99.90
56322;DHT22;42227;6.376;-10.782;2024-01-15T11:05:34;30.30;99.90
56322;DHT22;42227;6.376;-10.782;2024-01-15T11:08:02;30.30;99.90
56322;DHT22;42227;6.376;-10.782;2024-01-15T11:10:47;30.50;99.90
56322;DHT22;42227;6.376;-10.782;2024-01-15T11:13:39;30.70;99.90
56322;DHT22;42227;6.376;-10.782;2024-01-15T11:16:11;30.90;99.90
56322;DHT22;42227;6.376;-10.782;2024-01-15T11:19:12;31.00;99.90
56322;DHT22;42227;6.376;-10.782;2024-01-15T11:21:43;30.90;99.90
56322;DHT22;42227;6.376;-10.782;2024-01-15T11:24:38;30.90;99.90
56322;DHT22;42227;6.376;-10.782;2024-01-15T11:27:08;30.90;99.90
56322;DHT22;42227;6.376;-10.782;2024-01-15T11:29:37;31.00;99.90
56322;DHT22;42227;6.376;-10.782;2024-01-15T11:32:09;31.10;99.90
56322;DHT22;42227;6.376;-10.782;2024-01-15T11:35:03;31.10;99.90
56322;DHT22;42227;6.376;-10.782;2024-01-15T11:40:39;31.00;99.90
56322;DHT22;42227;6.376;-10.782;2024-01-15T11:43:07;30.90;99.90
56322;DHT22;42227;6.376;-10.782;2024-01-15T11:45:36;31.10;99.90
56322;DHT22;42227;6.376;-10.782;2024-01-15T11:50:42;31.20;99.90
56322;DHT22;42227;6.376;-10.782;2024-01-15T11:53:17;31.20;99.90
56322;DHT22;42227;6.376;-10.782;2024-01-15T11:55:46;31.30;99.90
56322;DHT22;42227;6.376;-10.782;2024-01-15T11:58:14;31.10;99.90
56322;DHT22;42227;6.376;-10.782;2024-01-15T12:00:48;31.00;99.90
56322;DHT22;42227;6.376;-10.782;2024-01-15T12:03:17;31.00;99.90
56322;DHT22;42227;6.376;-10.782;2024-01-15T12:05:45;30.90;99.90
56322;DHT22;42227;6.376;-10.782;2024-01-15T12:08:14;30.80;99.90
56322;DHT22;42227;6.376;-10.782;2024-01-15T12:10:42;30.90;99.90
56322;DHT22;42227;6.376;-10.782;2024-01-15T12:15:45;30.90;99.90
56322;DHT22;42227;6.376;-10.782;2024-01-15T12:18:16;31.00;99.90
56322;DHT22;42227;6.376;-10.782;2024-01-15T12:20:45;31.20;99.90
56322;DHT22;42227;6.376;-10.782;2024-01-15T12:23:14;31.10;99.90
56322;DHT22;42227;6.376;-10.782;2024-01-15T12:25:42;31.20;99.90
56322;DHT22;42227;6.376;-10.782;2024-01-15T12:28:11;31.30;99.90
56322;DHT22;42227;6.376;-10.782;2024-01-15T12:30:40;31.20;99.90
56322;DHT22;42227;6.376;-10.782;2024-01-15T12:33:08;31.20;99.90
56322;DHT22;42227;6.376;-10.782;2024-01-15T12:35:37;31.10;99.90
56322;DHT22;42227;6.376;-10.782;2024-01-15T12:38:06;31.10;99.90
56322;DHT22;42227;6.376;-10.782;2024-01-15T12:40:34;31.20;99.90
56322;DHT22;42227;6.376;-10.782;2024-01-15T12:43:06;31.30;99.90
56322;DHT22;42227;6.376;-10.782;2024-01-15T12:45:36;31.50;99.90
56322;DHT22;42227;6.376;-10.782;2024-01-15T12:48:05;31.50;99.90
56322;DHT22;42227;6.376;-10.782;2024-01-15T12:50:33;31.30;99.90
56322;DHT22;42227;6.376;-10.782;2024-01-15T12:53:02;31.30;99.90
56322;DHT22;42227;6.376;-10.782;2024-01-15T12:55:31;31.30;99.90
56322;DHT22;42227;6.376;-10.782;2024-01-15T12:57:59;31.20;99.90
56322;DHT22;42227;6.376;-10.782;2024-01-15T13:00:27;31.30;99.90
56322;DHT22;42227;6.376;-10.782;2024-01-15T13:02:57;31.30;99.90
56322;DHT22;42227;6.376;-10.782;2024-01-15T13:05:26;31.30;99.90
56322;DHT22;42227;6.376;-10.782;2024-01-15T13:07:56;31.40;99.90
56322;DHT22;42227;6.376;-10.782;2024-01-15T13:10:24;31.50;99.90
56322;DHT22;42227;6.376;-10.782;2024-01-15T13:12:53;31.50;99.90
56322;DHT22;42227;6.376;-10.782;2024-01-15T13:15:22;31.40;99.90
56322;DHT22;42227;6.376;-10.782;2024-01-15T13:17:50;31.50;99.90
56322;DHT22;42227;6.376;-10.782;2024-01-15T13:20:19;31.30;99.90
56322;DHT22;42227;6.376;-10.782;2024-01-15T13:22:47;31.50;99.90
56322;DHT22;42227;6.376;-10.782;2024-01-15T13:25:15;31.50;99.90
56322;DHT22;42227;6.376;-10.782;2024-01-15T13:27:44;31.50;99.90
56322;DHT22;42227;6.376;-10.782;2024-01-15T13:30:13;31.40;99.90
56322;DHT22;42227;6.376;-10.782;2024-01-15T13:32:41;31.30;99.90
56322;DHT22;42227;6.376;-10.782;2024-01-15T13:35:10;31.30;99.90
56322;DHT22;42227;6.376;-10.782;2024-01-15T13:37:38;31.30;99.90
56322;DHT22;42227;6.376;-10.782;2024-01-15T13:40:08;31.30;99.90
56322;DHT22;42227;6.376;-10.782;2024-01-15T13:42:36;31.30;99.90
56322;DHT22;42227;6.376;-10.782;2024-01-15T13:45:05;31.40;99.90
56322;DHT22;42227;6.376;-10.782;2024-01-15T13:47:34;31.40;99.90
56322;DHT22;42227;6.376;-10.782;2024-01-15T13:50:02;31.50;99.90
56322;DHT22;42227;6.376;-10.782;2024-01-15T13:52:31;31.50;99.90
56322;DHT22;42227;6.376;-10.782;2024-01-15T13:54:59;31.40;99.90
56322;DHT22;42227;6.376;-10.782;2024-01-15T13:57:28;31.40;99.90
56322;DHT22;42227;6.376;-10.782;2024-01-15T13:59:56;31.30;99.90
56322;DHT22;42227;6.376;-10.782;2024-01-15T14:02:24;31.30;99.90
56322;DHT22;42227;6.376;-10.782;2024-01-15T14:04:54;31.40;99.90
56322;DHT22;42227;6.376;-10.782;2024-01-15T14:07:23;31.40;99.90
56322;DHT22;42227;6.376;-10.782;2024-01-15T14:09:51;31.50;99.90
56322;DHT22;42227;6.376;-10.782;2024-01-15T14:12:19;31.50;99.90
56322;DHT22;42227;6.376;-10.782;2024-01-15T14:14:48;31.40;99.90
56322;DHT22;42227;6.376;-10.782;2024-01-15T14:17:16;31.50;99.90
56322;DHT22;42227;6.376;-10.782;2024-01-15T14:19:44;31.50;99.90
56322;DHT22;42227;6.376;-10.782;2024-01-15T14:22:13;31.70;99.90
56322;DHT22;42227;6.376;-10.782;2024-01-15T14:24:41;31.60;99.90
56322;DHT22;42227;6.376;-10.782;2024-01-15T14:27:10;31.60;99.90
56322;DHT22;42227;6.376;-10.782;2024-01-15T14:29:38;31.50;99.90
56322;DHT22;42227;6.376;-10.782;2024-01-15T14:32:06;31.70;99.90
56322;DHT22;42227;6.376;-10.782;2024-01-15T14:34:35;31.60;99.90
56322;DHT22;42227;6.376;-10.782;2024-01-15T14:37:03;31.70;99.90
56322;DHT22;42227;6.376;-10.782;2024-01-15T14:39:32;31.70;99.90
56322;DHT22;42227;6.376;-10.782;2024-01-15T14:42:00;31.70;99.90
56322;DHT22;42227;6.376;-10.782;2024-01-15T14:44:29;31.50;99.90
56322;DHT22;42227;6.376;-10.782;2024-01-15T14:46:57;31.40;99.90
56322;DHT22;42227;6.376;-10.782;2024-01-15T14:49:25;31.40;99.90
56322;DHT22;42227;6.376;-10.782;2024-01-15T14:51:54;31.40;99.90
56322;DHT22;42227;6.376;-10.782;2024-01-15T14:54:22;31.30;99.90
56322;DHT22;42227;6.376;-10.782;2024-01-15T14:56:51;31.30;99.90
56322;DHT22;42227;6.376;-10.782;2024-01-15T14:59:20;31.40;99.90
56322;DHT22;42227;6.376;-10.782;2024-01-15T15:01:48;31.30;99.90
56322;DHT22;42227;6.376;-10.782;2024-01-15T15:04:17;31.30;99.90
56322;DHT22;42227;6.376;-10.782;2024-01-15T15:06:45;31.40;99.90
56322;DHT22;42227;6.376;-10.782;2024-01-15T15:09:14;31.50;99.90
56322;DHT22;42227;6.376;-10.782;2024-01-15T15:11:42;31.50;99.90
56322;DHT22;42227;6.376;-10.782;2024-01-15T15:14:11;31.40;99.90
56322;DHT22;42227;6.376;-10.782;2024-01-15T15:16:39;31.40;99.90
56322;DHT22;42227;6.376;-10.782;2024-01-15T15:19:08;31.40;99.90
56322;DHT22;42227;6.376;-10.782;2024-01-15T15:21:36;31.30;99.90
56322;DHT22;42227;6.376;-10.782;2024-01-15T15:24:05;31.30;99.90
56322;DHT22;42227;6.376;-10.782;2024-01-15T15:26:33;31.30;99.90
56322;DHT22;42227;6.376;-10.782;2024-01-15T15:29:01;31.30;99.90
56322;DHT22;42227;6.376;-10.782;2024-01-15T15:31:30;31.40;99.90
56322;DHT22;42227;6.376;-10.782;2024-01-15T15:33:58;31.30;99.90
56322;DHT22;42227;6.376;-10.782;2024-01-15T15:36:27;31.20;99.90
56322;DHT22;42227;6.376;-10.782;2024-01-15T15:38:55;31.10;99.90
56322;DHT22;42227;6.376;-10.782;2024-01-15T15:41:25;31.20;99.90
56322;DHT22;42227;6.376;-10.782;2024-01-15T15:43:54;31.10;99.90
56322;DHT22;42227;6.376;-10.782;2024-01-15T15:46:22;31.20;99.90